createdAt,value
2018-09-27T03:37:35.152Z,1013.27
2018-09-27T03:38:45.246Z,1013.26
2018-09-27T03:39:55.101Z,1013.29
2018-09-27T03:41:05.576Z,1013.29
2018-09-27T03:42:15.148Z,1013.31
2018-09-27T03:43:25.294Z,1013.27
2018-09-27T03:44:35.384Z,1013.26
2018-09-27T03:45:45.440Z,1013.21
2018-09-27T03:46:55.518Z,1013.24
2018-09-27T03:48:07.997Z,1013.24
2018-09-27T03:49:18.053Z,1013.24
2018-09-27T03:50:28.206Z,1013.24
2018-09-27T03:51:38.315Z,1013.2
2018-09-27T03:52:48.368Z,1013.2
2018-09-27T03:53:58.188Z,1013.19
2018-09-27T03:55:08.317Z,1013.2
2018-09-27T03:56:18.391Z,1013.19
2018-09-27T03:57:28.441Z,1013.18
2018-09-27T03:58:38.511Z,1013.16
2018-09-27T03:59:48.590Z,1013.15
2018-09-27T04:00:58.674Z,1013.16
2018-09-27T04:02:09.488Z,1013.15
2018-09-27T04:03:19.734Z,1013.18
2018-09-27T04:04:30.148Z,1013.2
2018-09-27T04:05:39.955Z,1013.15
2018-09-27T04:06:49.518Z,1013.11
2018-09-27T04:07:59.582Z,1013.17
2018-09-27T04:09:09.652Z,1013.14
2018-09-27T04:10:19.471Z,1013.16
2018-09-27T04:11:29.294Z,1013.17
2018-09-27T04:12:39.416Z,1013.17
2018-09-27T04:13:49.884Z,1013.2
2018-09-27T04:14:59.964Z,1013.2
2018-09-27T04:16:10.038Z,1013.16
2018-09-27T04:17:20.092Z,1013.17
2018-09-27T04:18:29.905Z,1013.17
2018-09-27T04:19:39.468Z,1013.19
2018-09-27T04:20:49.540Z,1013.18
2018-09-27T04:21:59.625Z,1013.19
2018-09-27T04:23:09.726Z,1013.17
2018-09-27T04:24:19.796Z,1013.15
2018-09-27T04:25:29.960Z,1013.17
2018-09-27T04:26:40.034Z,1013.15
2018-09-27T04:27:49.900Z,1013.19
2018-09-27T04:29:00.089Z,1013.23
2018-09-27T04:30:10.244Z,1013.19
2018-09-27T04:31:20.302Z,1013.19
2018-09-27T04:32:30.396Z,1013.2
2018-09-27T04:33:40.514Z,1013.21
2018-09-27T04:34:51.168Z,1013.18
2018-09-27T04:36:01.246Z,1013.18
2018-09-27T04:37:11.328Z,1013.21
2018-09-27T04:38:20.881Z,1013.2
2018-09-27T04:39:30.945Z,1013.26
2018-09-27T04:40:41.108Z,1013.27
2018-09-27T04:41:51.226Z,1013.22
2018-09-27T04:43:01.740Z,1013.24
2018-09-27T04:44:11.546Z,1013.25
2018-09-27T04:45:21.609Z,1013.24
2018-09-27T04:46:31.482Z,1013.25
2018-09-27T04:47:41.868Z,1013.24
2018-09-27T04:48:51.940Z,1013.21
2018-09-27T04:50:01.812Z,1013.2
2018-09-27T04:51:11.877Z,1013.21
2018-09-27T04:52:21.943Z,1013.17
2018-09-27T04:53:31.743Z,1013.14
2018-09-27T04:54:41.806Z,1013.19
2018-09-27T04:55:51.957Z,1013.19
2018-09-27T04:57:02.041Z,1013.16
2018-09-27T04:58:12.111Z,1013.18
2018-09-27T04:59:22.184Z,1013.16
2018-09-27T05:00:32.378Z,1013.18
2018-09-27T05:01:42.493Z,1013.15
2018-09-27T05:02:52.029Z,1013.15
2018-09-27T05:04:01.845Z,1013.15
2018-09-27T05:05:11.918Z,1013.14
2018-09-27T05:06:22.257Z,1013.18
2018-09-27T05:07:32.604Z,1013.19
2018-09-27T05:08:42.670Z,1013.22
2018-09-27T05:09:52.736Z,1013.22
2018-09-27T05:11:03.604Z,1013.25
2018-09-27T05:12:13.670Z,1013.29
2018-09-27T05:13:23.793Z,1013.28
2018-09-27T05:14:33.597Z,1013.28
2018-09-27T05:15:43.826Z,1013.31
2018-09-27T05:16:53.997Z,1013.31
2018-09-27T05:18:04.062Z,1013.27
2018-09-27T05:19:14.121Z,1013.28
2018-09-27T05:20:24.212Z,1013.27
2018-09-27T05:21:34.678Z,1013.31
2018-09-27T05:22:44.957Z,1013.32
2018-09-27T05:23:55.003Z,1013.36
2018-09-27T05:25:04.803Z,1013.38
2018-09-27T05:26:14.086Z,1013.33
2018-09-27T05:27:24.147Z,1013.34
2018-09-27T05:28:34.395Z,1013.33
2018-09-27T05:29:44.472Z,1013.34
2018-09-27T05:30:54.581Z,1013.34
2018-09-27T05:32:04.401Z,1013.37
2018-09-27T05:33:14.454Z,1013.39
2018-09-27T05:34:24.301Z,1013.41
2018-09-27T05:35:34.365Z,1013.42
2018-09-27T05:36:44.428Z,1013.38
2018-09-27T05:37:54.518Z,1013.36
2018-09-27T05:39:05.352Z,1013.34
2018-09-27T05:40:14.906Z,1013.35
2018-09-27T05:41:24.708Z,1013.37
2018-09-27T05:42:34.502Z,1013.36
2018-09-27T05:43:44.295Z,1013.41
2018-09-27T05:44:54.368Z,1013.39
2018-09-27T05:46:04.181Z,1013.4
2018-09-27T05:47:14.257Z,1013.39
2018-09-27T05:48:24.385Z,1013.39
2018-09-27T05:49:34.456Z,1013.39
2018-09-27T05:50:44.550Z,1013.37
2018-09-27T05:51:54.623Z,1013.4
2018-09-27T05:53:04.409Z,1013.38
2018-09-27T05:54:14.532Z,1013.35
2018-09-27T05:55:24.579Z,1013.37
2018-09-27T05:56:34.629Z,1013.35
2018-09-27T05:57:44.682Z,1013.41
2018-09-27T05:58:54.791Z,1013.39
2018-09-27T06:00:06.099Z,1013.42
2018-09-27T06:01:15.942Z,1013.41
2018-09-27T06:02:26.023Z,1013.41
2018-09-27T06:03:35.849Z,1013.38
2018-09-27T06:04:46.422Z,1013.39
2018-09-27T06:05:56.227Z,1013.49
2018-09-27T06:07:06.163Z,1013.46
2018-09-27T06:08:16.257Z,1013.5
2018-09-27T06:09:26.088Z,1013.49
2018-09-27T06:10:36.406Z,1013.48
2018-09-27T06:11:46.536Z,1013.48
2018-09-27T06:12:56.603Z,1013.49
2018-09-27T06:14:06.427Z,1013.51
2018-09-27T06:15:16.508Z,1013.49
2018-09-27T06:16:26.731Z,1013.55
2018-09-27T06:17:36.813Z,1013.52
2018-09-27T06:18:46.895Z,1013.59
2018-09-27T06:19:57.089Z,1013.58
2018-09-27T06:21:06.963Z,1013.62
2018-09-27T06:22:17.024Z,1013.59
2018-09-27T06:23:27.090Z,1013.63
2018-09-27T06:24:37.155Z,1013.61
2018-09-27T06:25:47.241Z,1013.66
2018-09-27T06:26:57.402Z,1013.65
2018-09-27T06:28:07.465Z,1013.69
2018-09-27T06:29:17.578Z,1013.68
2018-09-27T06:30:27.643Z,1013.65
2018-09-27T06:31:37.460Z,1013.7
2018-09-27T06:32:47.514Z,1013.71
2018-09-27T06:33:57.813Z,1013.71
2018-09-27T06:35:08.394Z,1013.69
2018-09-27T06:36:18.444Z,1013.65
2018-09-27T06:37:28.511Z,1013.67
2018-09-27T06:38:38.601Z,1013.67
2018-09-27T06:39:48.577Z,1013.71
2018-09-27T06:40:58.731Z,1013.71
2018-09-27T06:42:09.783Z,1013.7
2018-09-27T06:43:19.844Z,1013.7
2018-09-27T06:44:30.003Z,1013.75
2018-09-27T06:45:40.342Z,1013.73
2018-09-27T06:46:50.470Z,1013.72
2018-09-27T06:48:03.099Z,1013.71
2018-09-27T06:49:12.986Z,1013.66
2018-09-27T06:50:23.057Z,1013.62
2018-09-27T06:51:33.249Z,1013.64
2018-09-27T06:52:43.151Z,1013.67
2018-09-27T06:53:52.953Z,1013.7
2018-09-27T06:55:03.129Z,1013.73
2018-09-27T06:56:14.185Z,1013.73
2018-09-27T06:57:23.776Z,1013.69
2018-09-27T06:58:33.838Z,1013.73
2018-09-27T06:59:43.887Z,1013.73
2018-09-27T07:00:53.777Z,1013.74
2018-09-27T07:02:04.054Z,1013.75
2018-09-27T07:03:14.184Z,1013.79
2018-09-27T07:04:24.353Z,1013.76
2018-09-27T07:05:34.150Z,1013.7
2018-09-27T07:06:43.686Z,1013.66
2018-09-27T07:07:53.233Z,1013.64
2018-09-27T07:09:03.297Z,1013.7
2018-09-27T07:10:12.577Z,1013.73
2018-09-27T07:11:22.398Z,1013.67
2018-09-27T07:12:32.315Z,1013.65
2018-09-27T07:13:42.042Z,1013.69
2018-09-27T07:14:52.113Z,1013.73
2018-09-27T07:16:02.240Z,1013.78
2018-09-27T07:17:12.057Z,1013.75
2018-09-27T07:18:22.128Z,1013.78
2018-09-27T07:19:31.949Z,1013.81
2018-09-27T07:20:42.104Z,1013.77
2018-09-27T07:21:52.655Z,1013.8
2018-09-27T07:23:02.917Z,1013.75
2018-09-27T07:24:13.011Z,1013.77
2018-09-27T07:25:22.815Z,1013.81
2018-09-27T07:26:32.994Z,1013.8
2018-09-27T07:27:43.372Z,1013.77
2018-09-27T07:28:53.175Z,1013.73
2018-09-27T07:30:03.058Z,1013.79
2018-09-27T07:31:12.922Z,1013.78
2018-09-27T07:32:23.243Z,1013.81
2018-09-27T07:33:33.604Z,1013.81
2018-09-27T07:34:43.640Z,1013.79
2018-09-27T07:35:53.704Z,1013.78
2018-09-27T07:37:03.522Z,1013.78
2018-09-27T07:38:13.091Z,1013.72
2018-09-27T07:39:23.251Z,1013.7
2018-09-27T07:40:33.370Z,1013.75
2018-09-27T07:41:43.448Z,1013.79
2018-09-27T07:42:53.628Z,1013.74
2018-09-27T07:44:03.791Z,1013.8
2018-09-27T07:45:13.659Z,1013.78
2018-09-27T07:46:23.738Z,1013.8
2018-09-27T07:47:33.548Z,1013.81
2018-09-27T07:48:43.367Z,1013.82
2018-09-27T07:49:53.185Z,1013.84
2018-09-27T07:51:02.738Z,1013.82
2018-09-27T07:52:12.835Z,1013.84
2018-09-27T07:53:22.898Z,1013.86
2018-09-27T07:54:33.136Z,1013.88
2018-09-27T07:55:43.193Z,1013.88
2018-09-27T07:56:53.017Z,1013.88
2018-09-27T07:58:04.192Z,1013.88
2018-09-27T07:59:14.249Z,1013.88
2018-09-27T08:00:24.105Z,1013.92
2018-09-27T08:01:34.191Z,1013.84
2018-09-27T08:02:43.889Z,1013.81
2018-09-27T08:03:54.501Z,1013.84
2018-09-27T08:05:04.749Z,1013.83
2018-09-27T08:06:14.810Z,1013.86
2018-09-27T08:07:24.900Z,1013.87
2018-09-27T08:08:34.734Z,1013.85
2018-09-27T08:09:45.153Z,1013.89
2018-09-27T08:10:55.264Z,1013.89
2018-09-27T08:12:05.862Z,1013.94
2018-09-27T08:13:15.936Z,1013.94
2018-09-27T08:14:26.047Z,1013.94
2018-09-27T08:15:36.017Z,1013.91
2018-09-27T08:16:46.164Z,1013.86
2018-09-27T08:17:56.361Z,1013.85
2018-09-27T08:19:06.667Z,1013.84
2018-09-27T08:20:16.743Z,1013.87
2018-09-27T08:21:26.573Z,1013.89
2018-09-27T08:22:36.649Z,1013.86
2018-09-27T08:23:46.724Z,1013.82
2018-09-27T08:24:56.866Z,1013.84
2018-09-27T08:26:06.971Z,1013.83
2018-09-27T08:27:16.792Z,1013.85
2018-09-27T08:28:26.868Z,1013.8
2018-09-27T08:29:36.970Z,1013.71
2018-09-27T08:30:46.818Z,1013.78
2018-09-27T08:31:57.918Z,1013.81
2018-09-27T08:33:07.716Z,1013.82
2018-09-27T08:34:17.531Z,1013.78
2018-09-27T08:35:27.672Z,1013.79
2018-09-27T08:36:37.480Z,1013.71
2018-09-27T08:37:47.320Z,1013.72
2018-09-27T08:38:57.428Z,1013.7
2018-09-27T08:40:07.487Z,1013.64
2018-09-27T08:41:17.565Z,1013.64
2018-09-27T08:42:27.624Z,1013.64
2018-09-27T08:43:37.693Z,1013.64
2018-09-27T08:44:47.896Z,1013.62
2018-09-27T08:45:59.510Z,1013.65
2018-09-27T08:47:09.647Z,1013.67
2018-09-27T08:48:19.189Z,1013.57
2018-09-27T08:49:29.021Z,1013.55
2018-09-27T08:50:38.827Z,1013.56
2018-09-27T08:51:48.650Z,1013.52
2018-09-27T08:52:58.192Z,1013.54
2018-09-27T08:54:08.115Z,1013.55
2018-09-27T08:55:17.154Z,1013.56
2018-09-27T08:56:27.545Z,1013.54
2018-09-27T08:57:37.694Z,1013.54
2018-09-27T08:58:48.210Z,1013.55
2018-09-27T08:59:58.291Z,1013.52
2018-09-27T09:01:10.447Z,1013.54
2018-09-27T09:02:20.504Z,1013.5
2018-09-27T09:03:30.398Z,1013.51
2018-09-27T09:04:41.247Z,1013.5
2018-09-27T09:05:51.332Z,1013.5
2018-09-27T09:07:01.426Z,1013.45
2018-09-27T09:08:11.504Z,1013.4
2018-09-27T09:09:21.583Z,1013.42
2018-09-27T09:10:31.259Z,1013.44
2018-09-27T09:11:41.078Z,1013.39
2018-09-27T09:12:51.167Z,1013.41
2018-09-27T09:14:03.035Z,1013.43
2018-09-27T09:15:12.860Z,1013.44
2018-09-27T09:16:23.027Z,1013.44
2018-09-27T09:17:33.103Z,1013.42
2018-09-27T09:18:43.167Z,1013.42
2018-09-27T09:19:52.997Z,1013.44
2018-09-27T09:21:02.831Z,1013.44
2018-09-27T09:22:12.641Z,1013.42
2018-09-27T09:23:22.480Z,1013.44
2018-09-27T09:24:32.625Z,1013.44
2018-09-27T09:25:43.242Z,1013.42
2018-09-27T09:26:53.745Z,1013.38
2018-09-27T09:28:03.837Z,1013.39
2018-09-27T09:29:13.913Z,1013.37
2018-09-27T09:30:24.072Z,1013.41
2018-09-27T09:31:33.626Z,1013.35
2018-09-27T09:32:43.709Z,1013.35
2018-09-27T09:33:53.580Z,1013.28
2018-09-27T09:35:03.668Z,1013.28
2018-09-27T09:36:13.482Z,1013.25
2018-09-27T09:37:23.318Z,1013.24
2018-09-27T09:38:33.382Z,1013.23
2018-09-27T09:39:43.458Z,1013.24
2018-09-27T09:40:53.277Z,1013.28
2018-09-27T09:42:03.371Z,1013.26
2018-09-27T09:43:13.448Z,1013.24
2018-09-27T09:44:23.528Z,1013.21
2018-09-27T09:45:33.379Z,1013.21
2018-09-27T09:46:43.452Z,1013.17
2018-09-27T09:47:52.992Z,1013.12
2018-09-27T09:49:04.379Z,1013.13
2018-09-27T09:50:14.447Z,1013.13
2018-09-27T09:51:24.275Z,1013.09
2018-09-27T09:52:34.353Z,1013.08
2018-09-27T09:53:44.429Z,1013.06
2018-09-27T09:54:54.508Z,1013.02
2018-09-27T09:56:04.045Z,1013.05
2018-09-27T09:57:14.127Z,1012.99
2018-09-27T09:58:23.927Z,1012.97
2018-09-27T09:59:34.006Z,1012.98
2018-09-27T10:00:43.805Z,1012.97
2018-09-27T10:01:53.880Z,1012.97
2018-09-27T10:03:03.998Z,1012.94
2018-09-27T10:04:14.067Z,1012.91
2018-09-27T10:05:23.870Z,1012.95
2018-09-27T10:06:33.959Z,1012.9
2018-09-27T10:07:43.757Z,1012.88
2018-09-27T10:08:53.881Z,1012.87
2018-09-27T10:10:04.520Z,1012.87
2018-09-27T10:11:14.594Z,1012.86
2018-09-27T10:12:24.668Z,1012.88
2018-09-27T10:13:34.480Z,1012.86
2018-09-27T10:14:44.657Z,1012.89
2018-09-27T10:15:54.730Z,1012.87
2018-09-27T10:17:04.800Z,1012.86
2018-09-27T10:18:14.877Z,1012.9
2018-09-27T10:19:24.952Z,1012.86
2018-09-27T10:20:34.772Z,1012.84
2018-09-27T10:21:44.962Z,1012.81
2018-09-27T10:22:55.612Z,1012.79
2018-09-27T10:24:05.421Z,1012.84
2018-09-27T10:25:15.240Z,1012.84
2018-09-27T10:26:25.067Z,1012.81
2018-09-27T10:27:35.236Z,1012.81
2018-09-27T10:28:45.433Z,1012.8
2018-09-27T10:29:55.515Z,1012.81
2018-09-27T10:31:05.595Z,1012.79
2018-09-27T10:32:15.410Z,1012.76
2018-09-27T10:33:25.498Z,1012.79
2018-09-27T10:34:35.128Z,1012.71
2018-09-27T10:35:45.716Z,1012.73
2018-09-27T10:36:55.808Z,1012.78
2018-09-27T10:38:06.347Z,1012.76
2018-09-27T10:39:16.156Z,1012.74
2018-09-27T10:40:26.228Z,1012.72
2018-09-27T10:41:36.285Z,1012.72
2018-09-27T10:42:45.834Z,1012.67
2018-09-27T10:43:55.693Z,1012.61
2018-09-27T10:45:05.774Z,1012.64
2018-09-27T10:46:15.884Z,1012.64
2018-09-27T10:47:25.963Z,1012.67
2018-09-27T10:48:36.063Z,1012.66
2018-09-27T10:49:46.183Z,1012.59
2018-09-27T10:50:56.264Z,1012.57
2018-09-27T10:52:07.249Z,1012.54
2018-09-27T10:53:17.083Z,1012.59
2018-09-27T10:54:27.189Z,1012.54
2018-09-27T10:55:37.315Z,1012.57
2018-09-27T10:56:47.406Z,1012.6
2018-09-27T10:57:57.255Z,1012.55
2018-09-27T10:59:07.437Z,1012.52
2018-09-27T11:00:17.522Z,1012.5
2018-09-27T11:01:27.638Z,1012.53
2018-09-27T11:02:37.729Z,1012.48
2018-09-27T11:03:47.795Z,1012.47
2018-09-27T11:04:58.035Z,1012.47
2018-09-27T11:06:08.132Z,1012.44
2018-09-27T11:07:18.271Z,1012.41
2018-09-27T11:08:28.336Z,1012.41
2018-09-27T11:09:38.162Z,1012.39
2018-09-27T11:10:48.365Z,1012.39
2018-09-27T11:11:58.753Z,1012.33
2018-09-27T11:13:08.588Z,1012.31
2018-09-27T11:14:18.407Z,1012.36
2018-09-27T11:15:28.487Z,1012.27
2018-09-27T11:16:38.646Z,1012.27
2018-09-27T11:17:48.934Z,1012.28
2018-09-27T11:18:58.788Z,1012.26
2018-09-27T11:20:08.620Z,1012.25
2018-09-27T11:21:18.697Z,1012.25
2018-09-27T11:22:28.774Z,1012.2
2018-09-27T11:23:38.877Z,1012.22
2018-09-27T11:24:48.799Z,1012.18
2018-09-27T11:25:58.623Z,1012.17
2018-09-27T11:27:08.703Z,1012.16
2018-09-27T11:28:18.510Z,1012.12
2018-09-27T11:29:28.596Z,1012.11
2018-09-27T11:30:38.747Z,1012.11
2018-09-27T11:31:48.867Z,1012.1
2018-09-27T11:32:59.067Z,1012.05
2018-09-27T11:34:09.269Z,1012.01
2018-09-27T11:35:19.338Z,1011.98
2018-09-27T11:36:29.066Z,1011.99
2018-09-27T11:37:38.523Z,1011.99
2018-09-27T11:38:48.369Z,1011.95
2018-09-27T11:39:58.190Z,1011.93
2018-09-27T11:41:10.476Z,1011.92
2018-09-27T11:42:20.591Z,1011.89
2018-09-27T11:43:31.241Z,1011.87
2018-09-27T11:44:41.322Z,1011.91
2018-09-27T11:45:51.399Z,1011.86
2018-09-27T11:47:01.963Z,1011.9
2018-09-27T11:48:12.048Z,1011.89
2018-09-27T11:49:22.192Z,1011.87
2018-09-27T11:50:33.128Z,1011.82
2018-09-27T11:51:43.223Z,1011.85
2018-09-27T11:52:53.305Z,1011.81
2018-09-27T11:54:03.464Z,1011.81
2018-09-27T11:55:13.409Z,1011.76
2018-09-27T11:56:23.570Z,1011.76
2018-09-27T11:57:33.653Z,1011.71
2018-09-27T11:58:43.766Z,1011.7
2018-09-27T11:59:53.994Z,1011.7
2018-09-27T12:01:04.090Z,1011.62
2018-09-27T12:02:14.172Z,1011.6
2018-09-27T12:03:24.254Z,1011.62
2018-09-27T12:04:34.348Z,1011.6
2018-09-27T12:05:44.222Z,1011.58
2018-09-27T12:06:54.401Z,1011.57
2018-09-27T12:08:04.227Z,1011.55
2018-09-27T12:09:14.315Z,1011.53
2018-09-27T12:10:23.875Z,1011.49
2018-09-27T12:11:34.075Z,1011.47
2018-09-27T12:12:43.877Z,1011.4
2018-09-27T12:13:53.959Z,1011.38
2018-09-27T12:15:03.527Z,1011.41
2018-09-27T12:16:13.108Z,1011.34
2018-09-27T12:17:22.740Z,1011.32
2018-09-27T12:18:32.774Z,1011.31
2018-09-27T12:19:42.955Z,1011.31
2018-09-27T12:20:52.787Z,1011.26
2018-09-27T12:22:02.885Z,1011.3
2018-09-27T12:23:13.043Z,1011.31
2018-09-27T12:24:22.881Z,1011.3
2018-09-27T12:25:32.729Z,1011.28
2018-09-27T12:26:42.876Z,1011.28
2018-09-27T12:27:52.967Z,1011.27
2018-09-27T12:29:04.284Z,1011.2
2018-09-27T12:30:14.359Z,1011.19
2018-09-27T12:31:24.465Z,1011.15
2018-09-27T12:32:34.548Z,1011.12
2018-09-27T12:33:44.678Z,1011.11
2018-09-27T12:34:54.842Z,1011.13
2018-09-27T12:36:04.928Z,1011.1
2018-09-27T12:37:15.023Z,1011.09
2018-09-27T12:38:25.124Z,1011.06
2018-09-27T12:39:35.417Z,1011.07
2018-09-27T12:40:45.804Z,1011.05
2018-09-27T12:41:56.092Z,1011.02
2018-09-27T12:43:07.674Z,1011.06
2018-09-27T12:44:17.503Z,1011.01
2018-09-27T12:45:27.358Z,1011
2018-09-27T12:46:37.896Z,1010.96
2018-09-27T12:47:48.079Z,1010.96
2018-09-27T12:48:58.051Z,1010.94
2018-09-27T12:50:08.544Z,1010.92
2018-09-27T12:51:18.948Z,1010.91
2018-09-27T12:52:29.992Z,1010.93
2018-09-27T12:53:40.750Z,1010.91
2018-09-27T12:54:50.864Z,1010.91
2018-09-27T12:56:01.024Z,1010.86
2018-09-27T12:57:11.828Z,1010.83
2018-09-27T12:58:22.080Z,1010.82
2018-09-27T12:59:32.039Z,1010.82
2018-09-27T13:00:42.130Z,1010.85
2018-09-27T13:01:51.818Z,1010.83
2018-09-27T13:03:02.898Z,1010.81
2018-09-27T13:04:13.000Z,1010.81
2018-09-27T13:05:22.806Z,1010.79
2018-09-27T13:06:32.893Z,1010.8
2018-09-27T13:07:43.010Z,1010.73
2018-09-27T13:08:53.142Z,1010.72
2018-09-27T13:10:03.664Z,1010.68
2018-09-27T13:11:13.845Z,1010.64
2018-09-27T13:12:23.743Z,1010.63
2018-09-27T13:13:34.714Z,1010.58
2018-09-27T13:14:45.130Z,1010.58
2018-09-27T13:15:55.615Z,1010.54
2018-09-27T13:17:06.369Z,1010.52
2018-09-27T13:18:17.062Z,1010.48
2018-09-27T13:19:27.231Z,1010.47
2018-09-27T13:20:38.002Z,1010.43
2018-09-27T13:21:48.481Z,1010.42
2018-09-27T13:22:58.383Z,1010.43
2018-09-27T13:24:08.921Z,1010.4
2018-09-27T13:25:19.012Z,1010.38
2018-09-27T13:26:29.326Z,1010.35
2018-09-27T13:27:39.415Z,1010.34
2018-09-27T13:28:49.511Z,1010.29
2018-09-27T13:29:59.340Z,1010.28
2018-09-27T13:31:09.687Z,1010.27
2018-09-27T13:32:19.814Z,1010.27
2018-09-27T13:33:29.916Z,1010.24
2018-09-27T13:34:40.017Z,1010.22
2018-09-27T13:35:50.117Z,1010.19
2018-09-27T13:37:00.289Z,1010.18
2018-09-27T13:38:11.018Z,1010.17
2018-09-27T13:39:21.121Z,1010.15
2018-09-27T13:40:31.244Z,1010.15
2018-09-27T13:41:40.804Z,1010.11
2018-09-27T13:42:50.399Z,1010.12
2018-09-27T13:44:01.807Z,1010.13
2018-09-27T13:45:11.714Z,1010.1
2018-09-27T13:46:21.881Z,1010.04
2018-09-27T13:47:32.319Z,1010.05
2018-09-27T13:48:42.152Z,1010.01
2018-09-27T13:49:52.276Z,1009.94
2018-09-27T13:51:02.437Z,1009.93
2018-09-27T13:52:12.841Z,1009.91
2018-09-27T13:53:22.664Z,1009.91
2018-09-27T13:54:32.494Z,1009.89
2018-09-27T13:55:42.642Z,1009.88
2018-09-27T13:56:52.892Z,1009.86
2018-09-27T13:58:03.595Z,1009.81
2018-09-27T13:59:13.426Z,1009.84
2018-09-27T14:00:23.266Z,1009.81
2018-09-27T14:01:33.084Z,1009.81
2018-09-27T14:02:42.661Z,1009.81
2018-09-27T14:03:52.531Z,1009.81
2018-09-27T14:05:02.364Z,1009.82
2018-09-27T14:06:12.448Z,1009.79
2018-09-27T14:07:22.604Z,1009.77
2018-09-27T14:08:32.417Z,1009.73
2018-09-27T14:09:42.524Z,1009.72
2018-09-27T14:10:52.603Z,1009.69
2018-09-27T14:12:02.981Z,1009.68
2018-09-27T14:13:13.117Z,1009.7
2018-09-27T14:14:22.945Z,1009.7
2018-09-27T14:15:33.180Z,1009.68
2018-09-27T14:16:43.320Z,1009.6
2018-09-27T14:17:53.038Z,1009.61
2018-09-27T14:19:03.516Z,1009.58
2018-09-27T14:20:13.642Z,1009.58
2018-09-27T14:21:23.468Z,1009.61
2018-09-27T14:22:33.023Z,1009.57
2018-09-27T14:23:42.857Z,1009.58
2018-09-27T14:24:53.016Z,1009.56
2018-09-27T14:26:03.363Z,1009.54
2018-09-27T14:27:13.194Z,1009.53
2018-09-27T14:28:23.295Z,1009.52
2018-09-27T14:29:33.385Z,1009.52
2018-09-27T14:30:43.472Z,1009.5
2018-09-27T14:31:53.933Z,1009.49
2018-09-27T14:33:04.069Z,1009.51
2018-09-27T14:34:13.914Z,1009.5
2018-09-27T14:35:23.746Z,1009.45
2018-09-27T14:36:34.072Z,1009.5
2018-09-27T14:37:44.529Z,1009.51
2018-09-27T14:38:54.347Z,1009.52
2018-09-27T14:40:04.428Z,1009.52
2018-09-27T14:41:14.258Z,1009.48
2018-09-27T14:42:24.389Z,1009.51
2018-09-27T14:43:34.686Z,1009.45
2018-09-27T14:44:44.766Z,1009.45
2018-09-27T14:45:54.619Z,1009.42
2018-09-27T14:47:04.745Z,1009.39
2018-09-27T14:48:14.828Z,1009.37
2018-09-27T14:49:24.918Z,1009.38
2018-09-27T14:50:34.760Z,1009.43
2018-09-27T14:51:44.325Z,1009.38
2018-09-27T14:52:54.420Z,1009.33
2018-09-27T14:54:04.564Z,1009.36
2018-09-27T14:55:14.668Z,1009.3
2018-09-27T14:56:24.500Z,1009.31
2018-09-27T14:57:34.618Z,1009.28
2018-09-27T14:58:44.760Z,1009.26
2018-09-27T14:59:54.952Z,1009.26
2018-09-27T15:01:05.148Z,1009.24
2018-09-27T15:02:15.369Z,1009.25
2018-09-27T15:03:25.761Z,1009.21
2018-09-27T15:04:35.950Z,1009.18
2018-09-27T15:05:46.196Z,1009.19
2018-09-27T15:06:56.310Z,1009.12
2018-09-27T15:08:06.454Z,1009.13
2018-09-27T15:09:16.674Z,1009.13
2018-09-27T15:10:27.557Z,1009.13
2018-09-27T15:11:38.353Z,1009.14
2018-09-27T15:12:48.548Z,1009.12
2018-09-27T15:13:58.314Z,1009.04
2018-09-27T15:15:08.411Z,1009.07
2018-09-27T15:16:18.566Z,1009.05
2018-09-27T15:17:29.142Z,1009.07
2018-09-27T15:18:38.975Z,1009.03
2018-09-27T15:19:49.075Z,1009.03
2018-09-27T15:20:59.159Z,1009.03
2018-09-27T15:22:09.234Z,1009.03
2018-09-27T15:23:19.160Z,1008.99
2018-09-27T15:24:29.452Z,1009.01
2018-09-27T15:25:39.574Z,1009
2018-09-27T15:26:49.676Z,1008.96
2018-09-27T15:27:59.774Z,1009
2018-09-27T15:29:09.621Z,1009.01
2018-09-27T15:30:19.731Z,1009.01
2018-09-27T15:31:29.881Z,1008.98
2018-09-27T15:32:39.986Z,1008.98
2018-09-27T15:33:50.096Z,1008.94
2018-09-27T15:35:01.560Z,1008.93
2018-09-27T15:36:11.662Z,1008.96
2018-09-27T15:37:21.923Z,1008.93
2018-09-27T15:38:31.807Z,1008.91
2018-09-27T15:39:41.891Z,1008.88
2018-09-27T15:40:51.840Z,1008.86
2018-09-27T15:42:02.360Z,1008.92
2018-09-27T15:43:12.478Z,1008.93
2018-09-27T15:44:22.616Z,1008.89
2018-09-27T15:45:32.861Z,1008.87
2018-09-27T15:46:43.403Z,1008.92
2018-09-27T15:47:53.502Z,1008.91
2018-09-27T15:49:04.833Z,1008.88
2018-09-27T15:50:14.714Z,1008.89
2018-09-27T15:51:24.821Z,1008.91
2018-09-27T15:52:35.366Z,1008.85
2018-09-27T15:53:45.453Z,1008.88
2018-09-27T15:54:55.540Z,1008.88
2018-09-27T15:56:05.761Z,1008.87
2018-09-27T15:57:15.836Z,1008.85
2018-09-27T15:58:25.951Z,1008.86
2018-09-27T15:59:36.189Z,1008.84
2018-09-27T16:00:46.268Z,1008.81
2018-09-27T16:01:56.093Z,1008.8
2018-09-27T16:03:06.168Z,1008.83
2018-09-27T16:04:16.336Z,1008.81
2018-09-27T16:05:26.274Z,1008.83
2018-09-27T16:06:36.156Z,1008.86
2018-09-27T16:07:46.293Z,1008.83
2018-09-27T16:08:56.377Z,1008.82
2018-09-27T16:10:06.480Z,1008.84
2018-09-27T16:11:16.580Z,1008.82
2018-09-27T16:12:26.682Z,1008.8
2018-09-27T16:13:36.821Z,1008.79
2018-09-27T16:14:46.747Z,1008.75
2018-09-27T16:15:56.941Z,1008.76
2018-09-27T16:17:08.372Z,1008.82
2018-09-27T16:18:18.515Z,1008.79
2018-09-27T16:19:28.650Z,1008.79
2018-09-27T16:20:38.751Z,1008.78
2018-09-27T16:21:48.868Z,1008.77
2018-09-27T16:22:59.243Z,1008.77
2018-09-27T16:24:09.420Z,1008.75
2018-09-27T16:25:19.599Z,1008.76
2018-09-27T16:26:29.427Z,1008.7
2018-09-27T16:27:39.530Z,1008.73
2018-09-27T16:28:49.653Z,1008.72
2018-09-27T16:29:59.752Z,1008.69
2018-09-27T16:31:11.122Z,1008.66
2018-09-27T16:32:20.951Z,1008.63
2018-09-27T16:33:31.098Z,1008.61
2018-09-27T16:34:41.800Z,1008.58
2018-09-27T16:35:51.385Z,1008.55
2018-09-27T16:37:01.247Z,1008.53
2018-09-27T16:38:11.336Z,1008.53
2018-09-27T16:39:21.428Z,1008.48
2018-09-27T16:40:31.556Z,1008.47
2018-09-27T16:41:41.453Z,1008.48
2018-09-27T16:42:51.707Z,1008.47
2018-09-27T16:44:01.832Z,1008.46
2018-09-27T16:45:11.931Z,1008.44
2018-09-27T16:46:21.495Z,1008.45
2018-09-27T16:47:31.648Z,1008.41
2018-09-27T16:48:42.083Z,1008.42
2018-09-27T16:49:52.275Z,1008.43
2018-09-27T16:51:02.118Z,1008.4
2018-09-27T16:52:12.216Z,1008.35
2018-09-27T16:53:22.307Z,1008.34
2018-09-27T16:54:32.572Z,1008.34
2018-09-27T16:55:42.709Z,1008.36
2018-09-27T16:56:52.551Z,1008.32
2018-09-27T16:58:02.117Z,1008.32
2018-09-27T16:59:12.223Z,1008.31
2018-09-27T17:00:22.306Z,1008.31
2018-09-27T17:01:32.435Z,1008.31
2018-09-27T17:02:42.358Z,1008.3
2018-09-27T17:03:52.473Z,1008.31
2018-09-27T17:05:02.297Z,1008.29
2018-09-27T17:06:12.138Z,1008.34
2018-09-27T17:07:22.242Z,1008.3
2018-09-27T17:08:32.352Z,1008.3
2018-09-27T17:09:42.236Z,1008.3
2018-09-27T17:10:52.338Z,1008.31
2018-09-27T17:12:02.715Z,1008.3
2018-09-27T17:13:12.930Z,1008.34
2018-09-27T17:14:23.037Z,1008.33
2018-09-27T17:15:33.198Z,1008.33
2018-09-27T17:16:43.176Z,1008.33
2018-09-27T17:17:53.633Z,1008.32
2018-09-27T17:19:03.739Z,1008.33
2018-09-27T17:20:13.850Z,1008.3
2018-09-27T17:21:24.017Z,1008.27
2018-09-27T17:22:33.934Z,1008.22
2018-09-27T17:23:44.541Z,1008.24
2018-09-27T17:24:54.790Z,1008.26
2018-09-27T17:26:04.902Z,1008.22
2018-09-27T17:27:14.996Z,1008.22
2018-09-27T17:28:25.133Z,1008.24
2018-09-27T17:29:35.646Z,1008.25
2018-09-27T17:30:45.868Z,1008.24
2018-09-27T17:31:56.002Z,1008.25
2018-09-27T17:33:08.338Z,1008.26
2018-09-27T17:34:18.993Z,1008.21
2018-09-27T17:35:29.265Z,1008.2
2018-09-27T17:36:39.617Z,1008.18
2018-09-27T17:37:49.699Z,1008.18
2018-09-27T17:38:59.596Z,1008.15
2018-09-27T17:40:09.840Z,1008.18
2018-09-27T17:41:20.282Z,1008.16
2018-09-27T17:42:30.400Z,1008.19
2018-09-27T17:43:40.563Z,1008.18
2018-09-27T17:44:50.742Z,1008.18
2018-09-27T17:46:01.148Z,1008.16
2018-09-27T17:47:11.688Z,1008.18
2018-09-27T17:48:21.803Z,1008.16